createdAt,value
2022-08-11T00:02:32.222Z,3.90
2022-08-11T00:05:05.738Z,3.50
2022-08-11T00:07:34.102Z,3.73
2022-08-11T00:10:03.719Z,3.63
2022-08-11T00:12:32.109Z,3.83
2022-08-11T00:15:03.209Z,3.40
2022-08-11T00:17:34.240Z,3.50
2022-08-11T00:20:15.193Z,3.70
2022-08-11T00:22:46.577Z,3.87
2022-08-11T00:25:17.518Z,3.97
2022-08-11T00:27:46.940Z,3.50
2022-08-11T00:30:16.722Z,3.67
2022-08-11T00:32:46.759Z,3.60
2022-08-11T00:35:51.717Z,3.53
2022-08-11T00:38:06.172Z,3.67
2022-08-11T00:40:39.297Z,3.80
2022-08-11T00:43:20.168Z,3.77
2022-08-11T00:46:06.210Z,3.70
2022-08-11T00:48:37.984Z,4.00
2022-08-11T00:51:15.122Z,4.33
2022-08-11T00:53:50.396Z,3.87
2022-08-11T00:56:31.601Z,3.60
2022-08-11T00:59:47.189Z,3.60
2022-08-11T01:02:18.928Z,4.00
2022-08-11T01:05:14.288Z,3.60
2022-08-11T01:08:01.046Z,3.70
2022-08-11T01:10:57.507Z,3.77
2022-08-11T01:14:03.532Z,3.90
2022-08-11T01:16:48.786Z,3.87
2022-08-11T01:20:44.846Z,3.27
2022-08-11T01:23:35.246Z,4.00
2022-08-11T01:26:32.465Z,3.40
2022-08-11T01:29:41.988Z,3.50
2022-08-11T01:33:06.197Z,3.97
2022-08-11T01:38:44.547Z,4.10
2022-08-11T01:41:52.899Z,3.50
2022-08-11T01:44:41.032Z,3.67
2022-08-11T01:47:38.650Z,3.70
2022-08-11T01:50:41.636Z,4.10
2022-08-11T01:53:14.523Z,3.87
2022-08-11T01:55:55.169Z,3.40
2022-08-11T01:58:43.904Z,3.70
2022-08-11T02:01:27.294Z,3.63
2022-08-11T02:03:58.426Z,3.80
2022-08-11T02:06:46.896Z,3.50
2022-08-11T02:09:21.694Z,3.60
2022-08-11T02:11:51.137Z,4.10
2022-08-11T02:14:25.958Z,3.67
2022-08-11T02:17:00.555Z,3.57
2022-08-11T02:19:55.965Z,3.80
2022-08-11T02:22:44.829Z,4.00
2022-08-11T02:25:23.816Z,3.80
2022-08-11T02:27:57.595Z,3.97
2022-08-11T02:30:27.175Z,3.50
2022-08-11T02:33:23.757Z,3.77
2022-08-11T02:35:59.609Z,3.80
2022-08-11T02:38:32.129Z,3.57
2022-08-11T02:41:27.750Z,3.67
2022-08-11T02:44:10.277Z,4.17
2022-08-11T02:46:45.639Z,4.03
2022-08-11T02:49:35.948Z,4.00
2022-08-11T02:52:08.631Z,4.00
2022-08-11T02:54:40.833Z,4.20
2022-08-11T02:57:17.046Z,3.80
2022-08-11T02:59:54.274Z,4.13
2022-08-11T03:02:42.596Z,4.20
2022-08-11T03:05:31.054Z,5.10
2022-08-11T03:08:25.675Z,4.87
2022-08-11T03:11:22.685Z,5.10
2022-08-11T03:14:17.387Z,3.93
2022-08-11T03:16:54.021Z,4.30
2022-08-11T03:19:29.652Z,4.03
2022-08-11T03:22:07.346Z,4.37
2022-08-11T03:24:44.368Z,4.60
2022-08-11T03:27:25.329Z,4.00
2022-08-11T03:30:05.240Z,3.77
2022-08-11T03:32:39.516Z,4.07
2022-08-11T03:35:09.943Z,4.17
2022-08-11T03:37:50.561Z,3.80
2022-08-11T03:40:49.231Z,3.97
2022-08-11T03:43:25.575Z,4.43
2022-08-11T03:45:59.551Z,4.60
2022-08-11T03:48:39.637Z,4.23
2022-08-11T03:51:14.776Z,3.90
2022-08-11T03:53:56.061Z,4.20
2022-08-11T03:57:00.996Z,4.10
2022-08-11T04:00:07.986Z,3.97
2022-08-11T04:03:16.817Z,4.40
2022-08-11T04:06:29.572Z,4.67
2022-08-11T04:09:25.362Z,3.87
2022-08-11T04:12:35.359Z,4.03
2022-08-11T04:15:32.716Z,4.10
2022-08-11T04:18:21.972Z,4.00
2022-08-11T04:21:04.837Z,3.93
2022-08-11T04:24:37.729Z,4.03
2022-08-11T04:27:40.948Z,4.37
2022-08-11T04:30:14.816Z,4.13
2022-08-11T04:33:10.629Z,3.87
2022-08-11T04:35:51.154Z,4.07
2022-08-11T04:38:59.466Z,3.70
2022-08-11T04:41:59.180Z,3.90
2022-08-11T04:45:23.309Z,4.10
2022-08-11T04:48:26.025Z,3.87
2022-08-11T04:51:21.203Z,4.17
2022-08-11T04:54:16.514Z,3.83
2022-08-11T04:57:04.208Z,3.60
2022-08-11T05:00:16.355Z,3.93
2022-08-11T05:03:10.911Z,4.20
2022-08-11T05:05:57.787Z,4.30
2022-08-11T05:08:54.159Z,3.73
2022-08-11T05:11:36.515Z,4.00
2022-08-11T05:14:49.439Z,4.23
2022-08-11T05:17:42.174Z,4.13
2022-08-11T05:20:31.091Z,3.87
2022-08-11T05:23:23.392Z,3.87
2022-08-11T05:26:43.644Z,4.07
2022-08-11T05:29:21.794Z,4.40
2022-08-11T05:32:14.324Z,4.50
2022-08-11T05:34:51.187Z,4.80
2022-08-11T05:37:27.067Z,4.83
2022-08-11T05:40:16.466Z,4.23
2022-08-11T05:56:20.583Z,4.10
2022-08-11T05:58:50.612Z,4.00
2022-08-11T06:01:24.658Z,5.40
2022-08-11T06:04:11.963Z,4.33
2022-08-11T06:06:45.423Z,4.80
2022-08-11T06:09:22.866Z,4.90
2022-08-11T06:11:54.329Z,4.97
2022-08-11T06:14:23.185Z,4.60
2022-08-11T06:16:52.242Z,4.43
2022-08-11T06:19:23.154Z,5.00
2022-08-11T06:21:53.280Z,4.53
2022-08-11T06:24:21.583Z,4.33
2022-08-11T06:27:11.824Z,4.60
2022-08-11T06:29:54.467Z,4.80
2022-08-11T06:32:28.646Z,4.40
2022-08-11T06:35:21.368Z,4.37
2022-08-11T06:38:04.295Z,4.30
2022-08-11T06:40:38.333Z,4.10
2022-08-11T06:43:16.567Z,4.47
2022-08-11T06:45:53.008Z,4.20
2022-08-11T06:48:23.478Z,4.47
2022-08-11T06:51:10.409Z,3.73
2022-08-11T06:53:42.112Z,3.80
2022-08-11T06:56:45.433Z,3.60
2022-08-11T06:59:34.290Z,3.83
2022-08-11T07:02:07.347Z,4.10
2022-08-11T07:04:43.242Z,3.90
2022-08-11T07:08:33.123Z,3.67
2022-08-11T07:11:34.538Z,4.03
2022-08-11T07:14:21.375Z,4.30
2022-08-11T07:16:51.573Z,3.93
2022-08-11T07:19:40.991Z,3.87
2022-08-11T07:22:29.046Z,4.30
2022-08-11T07:25:20.509Z,4.00
2022-08-11T07:28:08.548Z,4.43
2022-08-11T07:30:40.858Z,3.90
2022-08-11T07:33:13.449Z,4.00
2022-08-11T07:36:01.545Z,3.40
2022-08-11T07:38:45.047Z,3.70
2022-08-11T07:41:17.709Z,3.10
2022-08-11T07:43:49.074Z,4.50
2022-08-11T07:46:35.239Z,4.20
2022-08-11T07:49:23.361Z,3.60
2022-08-11T07:52:09.119Z,4.10
2022-08-11T07:54:37.811Z,4.07
2022-08-11T07:58:04.409Z,3.80
2022-08-11T08:00:31.262Z,3.77
2022-08-11T08:03:18.402Z,3.87
2022-08-11T08:06:06.119Z,3.73
2022-08-11T08:09:01.327Z,4.33
2022-08-11T08:11:47.298Z,4.20
2022-08-11T08:14:33.368Z,4.60
2022-08-11T08:17:19.314Z,3.77
2022-08-11T08:19:51.504Z,4.10
2022-08-11T08:22:38.062Z,4.20
2022-08-11T08:25:08.607Z,4.13
2022-08-11T08:27:38.340Z,4.20
2022-08-11T08:30:25.159Z,4.30
2022-08-11T08:32:55.791Z,3.60
2022-08-11T08:35:24.008Z,3.73
2022-08-11T08:37:53.817Z,3.80
2022-08-11T08:40:22.007Z,3.70
2022-08-11T08:42:53.713Z,3.70
2022-08-11T08:45:22.307Z,4.03
2022-08-11T08:47:54.314Z,3.80
2022-08-11T08:50:27.387Z,3.80
2022-08-11T08:52:59.753Z,3.73
2022-08-11T08:55:28.949Z,3.60
2022-08-11T08:58:00.675Z,3.40
2022-08-11T09:00:40.525Z,3.53
2022-08-11T09:03:36.664Z,3.60
2022-08-11T09:05:58.528Z,3.57
2022-08-11T09:08:29.489Z,3.70
2022-08-11T09:11:29.549Z,3.70
2022-08-11T09:14:04.969Z,4.00
2022-08-11T09:16:35.208Z,3.83
2022-08-11T09:19:04.009Z,4.13
2022-08-11T09:21:44.440Z,4.10
2022-08-11T09:24:37.025Z,4.23
2022-08-11T09:27:07.499Z,4.57
2022-08-11T09:29:36.844Z,3.93
2022-08-11T09:32:05.768Z,4.00
2022-08-11T09:34:36.671Z,3.93
2022-08-11T09:37:54.470Z,4.13
2022-08-11T09:40:31.335Z,3.90
2022-08-11T09:43:20.749Z,3.90
2022-08-11T09:45:51.885Z,4.23
2022-08-11T09:48:20.503Z,4.00
2022-08-11T09:50:52.182Z,4.30
2022-08-11T09:53:35.778Z,4.20
2022-08-11T09:56:33.803Z,4.70
2022-08-11T09:59:04.420Z,4.30
2022-08-11T10:01:34.758Z,4.03
2022-08-11T10:04:15.369Z,4.20
2022-08-11T10:07:04.713Z,3.67
2022-08-11T10:09:39.155Z,4.20
2022-08-11T10:12:12.042Z,3.93
2022-08-11T10:15:02.160Z,3.47
2022-08-11T10:17:33.960Z,4.17
2022-08-11T10:20:06.025Z,3.70
2022-08-11T10:23:16.490Z,3.70
2022-08-11T10:26:02.154Z,3.77
2022-08-11T10:28:44.691Z,3.63
2022-08-11T10:31:57.499Z,3.60
2022-08-11T10:34:28.370Z,3.47
2022-08-11T10:36:58.206Z,3.57
2022-08-11T10:39:28.179Z,3.93
2022-08-11T10:42:29.967Z,3.93
2022-08-11T10:45:26.290Z,3.83
2022-08-11T10:47:54.225Z,3.70
2022-08-11T10:50:40.375Z,3.80
2022-08-11T10:53:26.722Z,3.30
2022-08-11T10:56:12.444Z,3.50
2022-08-11T10:58:46.561Z,3.40
2022-08-11T11:01:17.035Z,3.50
2022-08-11T11:03:45.823Z,3.63
2022-08-11T11:06:28.273Z,3.47
2022-08-11T11:09:04.105Z,3.27
2022-08-11T11:11:53.902Z,3.40
2022-08-11T11:14:49.143Z,3.30
2022-08-11T11:17:44.487Z,3.10
2022-08-11T11:20:35.946Z,3.50
2022-08-11T11:23:08.279Z,3.40
2022-08-11T11:26:07.343Z,3.50
2022-08-11T11:29:07.387Z,3.40
2022-08-11T11:31:47.497Z,3.47
2022-08-11T11:34:25.059Z,3.17
2022-08-11T11:36:56.760Z,3.30
2022-08-11T11:39:26.099Z,3.50
2022-08-11T11:41:56.749Z,3.20
2022-08-11T11:44:26.757Z,3.20
2022-08-11T11:46:56.739Z,3.13
2022-08-11T11:49:28.406Z,3.97
2022-08-11T11:51:59.109Z,3.50
2022-08-11T11:54:28.444Z,3.30
2022-08-11T11:56:57.553Z,3.00
2022-08-11T11:59:44.845Z,3.17
2022-08-11T12:02:14.767Z,3.33
2022-08-11T12:04:46.031Z,3.17
2022-08-11T12:07:30.730Z,3.30
2022-08-11T12:09:59.676Z,3.23
2022-08-11T12:12:45.774Z,3.20
2022-08-11T12:15:14.036Z,2.90
2022-08-11T12:17:42.234Z,3.20
2022-08-11T12:20:31.610Z,3.97
2022-08-11T12:23:20.051Z,3.20
2022-08-11T12:26:25.995Z,3.40
2022-08-11T12:28:53.798Z,3.43
2022-08-11T12:31:25.990Z,2.97
2022-08-11T12:33:56.112Z,3.30
2022-08-11T12:36:25.770Z,2.97
2022-08-11T12:38:54.560Z,3.23
2022-08-11T12:41:40.460Z,3.03
2022-08-11T12:44:28.335Z,3.30
2022-08-11T12:47:00.343Z,3.03
2022-08-11T12:49:47.520Z,3.13
2022-08-11T12:52:26.985Z,3.00
2022-08-11T12:55:02.349Z,3.10
2022-08-11T12:57:51.340Z,3.33
2022-08-11T13:00:38.376Z,3.10
2022-08-11T13:03:26.043Z,2.80
2022-08-11T13:05:56.463Z,3.03
2022-08-11T13:08:26.815Z,3.00
2022-08-11T13:11:13.572Z,3.20
2022-08-11T13:13:55.225Z,3.30
2022-08-11T13:16:27.923Z,2.93
2022-08-11T13:18:58.839Z,2.87
2022-08-11T13:21:27.976Z,3.23
2022-08-11T13:24:01.719Z,2.70
2022-08-11T13:26:43.154Z,3.40
2022-08-11T13:29:20.791Z,2.93
2022-08-11T13:31:49.858Z,3.03
2022-08-11T13:34:18.395Z,2.90
2022-08-11T13:36:49.918Z,3.10
2022-08-11T13:39:19.635Z,2.87
2022-08-11T13:41:49.119Z,2.73
2022-08-11T13:44:24.840Z,3.00
2022-08-11T13:46:55.323Z,2.70
2022-08-11T13:49:23.911Z,2.93
2022-08-11T13:51:52.238Z,2.93
2022-08-11T13:54:24.276Z,2.53
2022-08-11T13:56:55.256Z,2.70
2022-08-11T13:59:29.891Z,2.63
2022-08-11T14:02:21.812Z,2.90
2022-08-11T14:04:54.668Z,2.80
2022-08-11T14:07:24.776Z,2.80
2022-08-11T14:09:57.928Z,2.50
2022-08-11T14:12:46.070Z,2.60
2022-08-11T14:15:20.074Z,2.80
2022-08-11T14:18:05.692Z,2.80
2022-08-11T14:20:49.927Z,2.80
2022-08-11T14:23:18.685Z,2.70
2022-08-11T14:26:02.916Z,2.70
2022-08-11T14:28:39.995Z,2.80
2022-08-11T14:31:12.230Z,2.60
2022-08-11T14:34:00.199Z,2.77
2022-08-11T14:36:31.473Z,2.50
2022-08-11T14:38:59.823Z,2.63
2022-08-11T14:42:10.898Z,2.67
2022-08-11T14:44:53.954Z,2.50
2022-08-11T14:47:25.228Z,2.60
2022-08-11T14:50:00.683Z,2.90
2022-08-11T14:52:44.649Z,2.73
2022-08-11T14:55:30.932Z,2.70
2022-08-11T14:58:00.882Z,3.00
2022-08-11T15:00:29.068Z,2.33
2022-08-11T15:03:12.125Z,3.10
2022-08-11T15:05:55.679Z,2.80
2022-08-11T15:08:41.826Z,2.90
2022-08-11T15:11:31.295Z,2.77
2022-08-11T15:14:02.989Z,2.97
2022-08-11T15:16:48.682Z,2.70
2022-08-11T15:19:19.602Z,3.10
2022-08-11T15:22:21.294Z,2.70
2022-08-11T15:24:51.878Z,2.80
2022-08-11T15:27:39.276Z,2.60
2022-08-11T15:30:33.286Z,3.17
2022-08-11T15:33:23.787Z,2.67
2022-08-11T15:36:13.416Z,2.70
2022-08-11T15:38:45.221Z,2.80
2022-08-11T15:41:36.014Z,3.00
2022-08-11T15:44:44.487Z,3.10
2022-08-11T15:47:24.704Z,3.00
2022-08-11T15:50:10.487Z,2.60
2022-08-11T15:52:46.868Z,2.60
2022-08-11T15:55:15.430Z,2.90
2022-08-11T15:58:01.727Z,3.30
2022-08-11T16:01:03.719Z,3.37
2022-08-11T16:04:09.125Z,2.60
2022-08-11T16:06:47.472Z,2.90
2022-08-11T16:09:18.359Z,2.90
2022-08-11T16:11:47.680Z,2.90
2022-08-11T16:14:35.261Z,2.60
2022-08-11T16:17:04.733Z,2.70
2022-08-11T16:19:36.472Z,2.90
2022-08-11T16:22:07.318Z,2.53
2022-08-11T16:27:02.994Z,2.73
2022-08-11T16:27:28.261Z,2.50
2022-08-11T16:29:57.331Z,2.70
2022-08-11T16:32:27.375Z,2.80
2022-08-11T16:35:23.249Z,2.70
2022-08-11T16:38:10.520Z,3.70
2022-08-11T16:40:39.049Z,2.70
2022-08-11T16:43:26.918Z,2.77
2022-08-11T16:46:13.307Z,2.63
2022-08-11T16:48:43.397Z,2.70
2022-08-11T16:51:14.021Z,2.80
2022-08-11T16:54:00.027Z,2.60
2022-08-11T16:56:37.550Z,3.20
2022-08-11T16:59:14.785Z,2.87
2022-08-11T17:01:45.996Z,2.50
2022-08-11T17:04:38.337Z,2.60
2022-08-11T17:07:42.198Z,2.80
2022-08-11T17:10:51.690Z,3.07
2022-08-11T17:13:25.461Z,2.90
2022-08-11T17:16:08.466Z,2.90
2022-08-11T17:18:41.283Z,2.73
2022-08-11T17:21:13.536Z,2.93
2022-08-11T17:23:47.506Z,2.80
2022-08-11T17:26:21.641Z,2.70
2022-08-11T17:28:52.660Z,3.10
2022-08-11T17:31:39.859Z,2.87
2022-08-11T17:34:26.509Z,3.03
2022-08-11T17:36:55.717Z,3.07
2022-08-11T17:39:30.214Z,3.00
2022-08-11T17:42:16.657Z,3.23
2022-08-11T17:45:02.859Z,3.20
2022-08-11T17:47:49.280Z,4.00
2022-08-11T17:50:18.406Z,3.63
2022-08-11T17:53:05.474Z,3.30
2022-08-11T17:55:54.174Z,2.80
2022-08-11T17:58:40.381Z,3.20
2022-08-11T18:01:10.936Z,2.93
2022-08-11T18:03:40.777Z,3.27
2022-08-11T18:06:12.682Z,3.30
2022-08-11T18:09:02.055Z,3.10
2022-08-11T18:12:06.571Z,3.20
2022-08-11T18:14:57.395Z,3.80
2022-08-11T18:17:43.274Z,3.33
2022-08-11T18:20:28.925Z,3.17
2022-08-11T18:23:15.608Z,3.40
2022-08-11T18:26:07.121Z,3.20
2022-08-11T18:28:58.443Z,3.40
2022-08-11T18:31:44.719Z,3.30
2022-08-11T18:34:33.399Z,3.33
2022-08-11T18:37:25.967Z,3.13
2022-08-11T18:40:17.344Z,3.40
2022-08-11T18:43:04.992Z,3.33
2022-08-11T18:46:06.422Z,3.50
2022-08-11T18:48:53.890Z,3.20
2022-08-11T18:51:41.564Z,3.33
2022-08-11T18:54:28.383Z,3.37
2022-08-11T18:57:17.063Z,3.57
2022-08-11T19:00:03.023Z,3.70
2022-08-11T19:02:51.364Z,3.47
2022-08-11T19:06:05.946Z,3.13
2022-08-11T19:08:45.346Z,3.37
2022-08-11T19:11:31.591Z,3.20
2022-08-11T19:14:17.766Z,3.27
2022-08-11T19:17:04.688Z,3.70
2022-08-11T19:19:51.827Z,3.37
2022-08-11T19:22:37.697Z,3.57
2022-08-11T19:25:25.945Z,3.97
2022-08-11T19:28:12.692Z,3.73
2022-08-11T19:30:58.746Z,4.00
2022-08-11T19:34:00.127Z,3.50
2022-08-11T19:36:52.055Z,4.10
2022-08-11T19:39:38.613Z,3.60
2022-08-11T19:42:26.132Z,3.73
2022-08-11T19:45:12.305Z,3.70
2022-08-11T19:48:30.102Z,3.70
2022-08-11T19:51:04.637Z,3.57
2022-08-11T19:53:52.239Z,3.47
2022-08-11T19:56:38.482Z,3.47
2022-08-11T19:59:24.558Z,3.67
2022-08-11T20:02:13.346Z,3.70
2022-08-11T20:05:00.476Z,3.80
2022-08-11T20:07:46.762Z,4.00
2022-08-11T20:10:35.800Z,4.23
2022-08-11T20:13:22.099Z,3.30
2022-08-11T20:16:08.671Z,3.93
2022-08-11T20:18:54.677Z,3.70
2022-08-11T20:21:41.031Z,3.93
2022-08-11T20:24:27.580Z,4.10
2022-08-11T20:27:19.005Z,4.07
2022-08-11T20:30:11.458Z,3.80
2022-08-11T20:32:58.293Z,3.70
2022-08-11T20:35:44.531Z,4.37
2022-08-11T20:38:30.499Z,3.80
2022-08-11T20:41:16.494Z,4.30
2022-08-11T20:44:06.771Z,3.93
2022-08-11T20:46:57.116Z,3.43
2022-08-11T20:49:48.746Z,3.60
2022-08-11T20:52:39.857Z,3.73
2022-08-11T20:55:51.519Z,3.60
2022-08-11T20:58:54.850Z,3.73
2022-08-11T21:01:42.159Z,4.00
2022-08-11T21:04:28.113Z,4.30
2022-08-11T21:07:23.569Z,3.97
2022-08-11T21:10:23.215Z,3.87
2022-08-11T21:13:26.554Z,3.97
2022-08-11T21:16:25.201Z,3.80
2022-08-11T21:19:16.414Z,3.80
2022-08-11T21:22:03.579Z,3.90
2022-08-11T21:24:51.434Z,4.10
2022-08-11T21:27:38.910Z,4.20
2022-08-11T21:30:25.679Z,3.93
2022-08-11T21:33:11.988Z,3.93
2022-08-11T21:35:58.913Z,4.40
2022-08-11T21:38:45.522Z,4.07
2022-08-11T21:41:31.426Z,4.40
2022-08-11T21:44:17.522Z,4.27
2022-08-11T21:47:04.946Z,4.27
2022-08-11T21:49:51.647Z,4.80
2022-08-11T21:52:39.319Z,4.60
2022-08-11T21:55:26.090Z,4.20
2022-08-11T21:58:12.769Z,4.47
2022-08-11T22:00:58.707Z,4.37
2022-08-11T22:03:50.263Z,4.47
2022-08-11T22:06:36.142Z,4.07
2022-08-11T22:09:23.168Z,4.43
2022-08-11T22:12:30.063Z,4.50
2022-08-11T22:15:14.699Z,4.30
2022-08-11T22:18:00.271Z,4.40
2022-08-11T22:20:47.290Z,4.20
2022-08-11T22:23:36.063Z,4.20
2022-08-11T22:26:24.611Z,4.27
2022-08-11T22:29:10.554Z,4.20
2022-08-11T22:31:56.687Z,4.10
2022-08-11T22:34:44.985Z,4.00
2022-08-11T22:37:39.856Z,4.43
2022-08-11T22:40:27.378Z,4.23
2022-08-11T22:43:14.145Z,4.10
2022-08-11T22:45:59.568Z,4.30
2022-08-11T22:48:48.219Z,4.20
2022-08-11T22:51:34.363Z,4.30
2022-08-11T22:54:22.103Z,4.40
2022-08-11T22:57:08.701Z,4.00
2022-08-11T22:59:56.871Z,3.80
2022-08-11T23:02:44.588Z,4.10
2022-08-11T23:05:32.692Z,4.17
2022-08-11T23:08:19.004Z,3.70
2022-08-11T23:11:05.096Z,4.10
2022-08-11T23:13:51.814Z,3.63
2022-08-11T23:16:39.486Z,3.77
2022-08-11T23:20:04.835Z,4.13
2022-08-11T23:22:37.742Z,4.20
2022-08-11T23:25:36.003Z,4.23
2022-08-11T23:28:24.066Z,4.23
2022-08-11T23:31:11.427Z,3.80
2022-08-11T23:33:59.090Z,3.97
2022-08-11T23:36:47.906Z,4.30
2022-08-11T23:39:34.361Z,4.00
2022-08-11T23:42:20.235Z,4.30
2022-08-11T23:45:07.171Z,4.17
2022-08-11T23:47:55.562Z,4.00
2022-08-11T23:50:43.337Z,4.03
2022-08-11T23:53:28.787Z,3.80
2022-08-11T23:56:14.302Z,3.90
2022-08-11T23:58:59.874Z,4.30
